createdAt,value
2017-12-08T00:00:41.870Z,73.50
2017-12-08T00:03:09.335Z,73.70
2017-12-08T00:05:36.820Z,73.90
2017-12-08T00:08:05.055Z,73.90
2017-12-08T00:10:32.546Z,73.70
2017-12-08T00:13:00.794Z,74.80
2017-12-08T00:15:28.282Z,74.00
2017-12-08T00:17:55.750Z,74.20
2017-12-08T00:20:23.229Z,74.20
2017-12-08T00:22:51.481Z,74.20
2017-12-08T00:25:18.972Z,74.20
2017-12-08T00:27:47.211Z,74.50
2017-12-08T00:30:14.696Z,74.50
2017-12-08T00:32:42.178Z,74.40
2017-12-08T00:35:10.426Z,75.10
2017-12-08T00:37:37.901Z,75.10
2017-12-08T00:40:05.385Z,75.20
2017-12-08T00:42:33.616Z,75.40
2017-12-08T00:45:01.090Z,75.50
2017-12-08T00:47:28.576Z,75.70
2017-12-08T00:49:56.047Z,75.80
2017-12-08T00:52:24.292Z,76.50
2017-12-08T00:54:51.763Z,76.50
2017-12-08T00:57:19.248Z,76.60
2017-12-08T00:59:47.485Z,76.90
2017-12-08T01:02:14.978Z,76.80
2017-12-08T01:04:42.466Z,76.90
2017-12-08T01:07:10.733Z,76.90
2017-12-08T01:09:38.199Z,76.90
2017-12-08T01:12:06.437Z,76.90
2017-12-08T01:14:33.910Z,76.90
2017-12-08T01:17:01.390Z,76.70
2017-12-08T01:19:28.856Z,76.90
2017-12-08T01:21:56.344Z,76.70
2017-12-08T01:24:24.572Z,76.90
2017-12-08T01:26:52.062Z,76.90
2017-12-08T01:29:19.519Z,77.50
2017-12-08T01:31:47.025Z,76.80
2017-12-08T01:34:14.491Z,76.80
2017-12-08T01:36:41.997Z,76.90
2017-12-08T01:39:09.471Z,77.00
2017-12-08T01:41:36.970Z,77.10
2017-12-08T01:44:04.440Z,77.20
2017-12-08T01:46:31.919Z,77.20
2017-12-08T01:48:59.396Z,77.30
2017-12-08T01:51:26.908Z,77.30
2017-12-08T01:53:55.141Z,77.30
2017-12-08T01:56:22.638Z,77.20
2017-12-08T01:58:50.881Z,77.30
2017-12-08T02:01:18.366Z,77.20
2017-12-08T02:03:45.903Z,77.40
2017-12-08T02:06:14.122Z,77.10
2017-12-08T02:08:41.629Z,77.10
2017-12-08T02:11:09.119Z,76.90
2017-12-08T02:13:36.613Z,76.80
2017-12-08T02:16:04.082Z,76.70
2017-12-08T02:18:32.355Z,76.90
2017-12-08T02:20:59.836Z,76.90
2017-12-08T02:23:28.092Z,77.00
2017-12-08T02:25:55.578Z,76.90
2017-12-08T02:28:23.851Z,77.60
2017-12-08T02:30:52.096Z,77.90
2017-12-08T02:33:20.340Z,78.40
2017-12-08T02:35:47.814Z,78.30
2017-12-08T02:38:15.308Z,79.00
2017-12-08T02:40:42.788Z,79.10
2017-12-08T02:43:10.269Z,79.50
2017-12-08T02:45:38.508Z,79.80
2017-12-08T02:48:06.009Z,79.80
2017-12-08T02:50:34.264Z,80.30
2017-12-08T02:53:01.734Z,80.30
2017-12-08T02:55:29.220Z,80.30
2017-12-08T02:57:57.468Z,80.70
2017-12-08T03:00:28.444Z,80.70
2017-12-08T03:02:55.957Z,80.70
2017-12-08T03:05:23.454Z,80.90
2017-12-08T03:07:50.965Z,80.90
2017-12-08T03:10:18.449Z,81.10
2017-12-08T03:12:45.940Z,81.20
2017-12-08T03:15:13.445Z,81.30
2017-12-08T03:17:40.917Z,81.60
2017-12-08T03:20:08.405Z,81.50
2017-12-08T03:22:35.900Z,81.70
2017-12-08T03:25:03.391Z,81.60
2017-12-08T03:27:30.870Z,81.90
2017-12-08T03:29:58.351Z,82.00
2017-12-08T03:32:25.833Z,82.20
2017-12-08T03:34:54.087Z,82.30
2017-12-08T03:37:21.573Z,82.20
2017-12-08T03:39:49.830Z,82.50
2017-12-08T03:42:17.317Z,82.30
2017-12-08T03:44:45.560Z,82.60
2017-12-08T03:47:13.039Z,82.60
2017-12-08T03:49:40.524Z,82.80
2017-12-08T03:52:08.770Z,84.10
2017-12-08T03:54:36.266Z,83.30
2017-12-08T03:57:04.511Z,78.20
2017-12-08T03:59:31.994Z,78.20
2017-12-08T04:01:59.474Z,78.60
2017-12-08T04:04:27.730Z,78.50
2017-12-08T04:06:55.197Z,78.50
2017-12-08T04:09:22.684Z,78.80
2017-12-08T04:11:50.930Z,79.50
2017-12-08T04:14:18.439Z,79.40
2017-12-08T04:16:45.917Z,79.30
2017-12-08T04:19:13.399Z,79.30
2017-12-08T04:21:40.879Z,78.90
2017-12-08T04:24:08.373Z,79.00
2017-12-08T04:26:36.633Z,79.10
2017-12-08T04:29:04.143Z,79.10
2017-12-08T04:31:31.650Z,78.40
2017-12-08T04:33:59.120Z,77.80
2017-12-08T04:36:26.615Z,78.40
2017-12-08T04:38:54.851Z,78.30
2017-12-08T04:41:22.326Z,78.20
2017-12-08T04:43:49.788Z,77.90
2017-12-08T04:46:17.272Z,77.70
2017-12-08T04:48:45.513Z,77.60
2017-12-08T04:51:12.984Z,77.50
2017-12-08T04:53:40.448Z,77.50
2017-12-08T04:56:07.931Z,77.50
2017-12-08T04:58:35.411Z,77.30
2017-12-08T05:01:03.799Z,77.20
2017-12-08T05:03:32.036Z,77.30
2017-12-08T05:05:59.524Z,77.30
2017-12-08T05:08:27.776Z,77.30
2017-12-08T05:10:55.267Z,77.30
2017-12-08T05:13:22.740Z,77.50
2017-12-08T05:15:51.036Z,77.50
2017-12-08T05:18:18.472Z,77.40
2017-12-08T05:20:46.756Z,77.50
2017-12-08T05:23:14.206Z,77.40
2017-12-08T05:25:41.679Z,77.50
2017-12-08T05:28:09.922Z,77.40
2017-12-08T05:30:37.596Z,77.40
2017-12-08T05:33:05.074Z,77.30
2017-12-08T05:35:32.564Z,77.40
2017-12-08T05:38:00.806Z,77.40
2017-12-08T05:40:28.304Z,77.30
2017-12-08T05:42:56.550Z,77.30
2017-12-08T05:45:24.026Z,77.30
2017-12-08T05:47:51.500Z,78.00
2017-12-08T05:50:19.749Z,77.30
2017-12-08T05:52:47.237Z,77.30
2017-12-08T05:55:15.507Z,77.40
2017-12-08T05:57:42.980Z,77.40
2017-12-08T06:00:10.472Z,77.50
2017-12-08T06:02:37.957Z,77.60
2017-12-08T06:05:05.432Z,77.70
2017-12-08T06:07:32.924Z,77.80
2017-12-08T06:10:00.401Z,77.80
2017-12-08T06:12:28.651Z,77.70
2017-12-08T06:14:56.122Z,77.70
2017-12-08T06:17:23.595Z,77.60
2017-12-08T06:19:51.074Z,77.70
2017-12-08T06:25:11.249Z,77.20
2017-12-08T06:27:38.727Z,77.10
2017-12-08T06:30:06.204Z,77.00
2017-12-08T06:32:34.463Z,77.50
2017-12-08T06:35:01.943Z,77.50
2017-12-08T06:37:30.202Z,77.50
2017-12-08T06:39:57.917Z,77.50
2017-12-08T06:42:25.413Z,77.40
2017-12-08T06:44:52.881Z,77.40
2017-12-08T06:47:20.369Z,78.00
2017-12-08T06:49:52.609Z,77.40
2017-12-08T06:52:20.897Z,77.80
2017-12-08T06:54:48.386Z,77.40
2017-12-08T06:57:16.633Z,77.80
2017-12-08T06:59:44.115Z,77.10
2017-12-08T07:02:11.620Z,77.20
2017-12-08T07:04:39.103Z,76.80
2017-12-08T07:07:06.586Z,76.60
2017-12-08T07:09:34.083Z,76.60
2017-12-08T07:12:01.609Z,76.30
2017-12-08T07:14:29.102Z,76.30
2017-12-08T07:16:56.566Z,76.20
2017-12-08T07:19:24.047Z,76.10
2017-12-08T07:21:52.293Z,76.10
2017-12-08T07:24:19.777Z,76.00
2017-12-08T07:26:48.010Z,76.50
2017-12-08T07:29:15.538Z,76.50
2017-12-08T07:31:42.969Z,76.70
2017-12-08T07:34:10.450Z,76.50
2017-12-08T07:36:37.940Z,76.40
2017-12-08T07:39:05.419Z,76.50
2017-12-08T07:41:32.897Z,76.70
2017-12-08T07:44:00.406Z,76.60
2017-12-08T07:46:28.636Z,76.90
2017-12-08T07:48:56.125Z,76.90
2017-12-08T07:51:23.604Z,77.00
2017-12-08T07:53:51.084Z,76.50
2017-12-08T07:56:19.315Z,76.40
2017-12-08T07:58:46.804Z,76.40
2017-12-08T08:01:14.267Z,76.40
2017-12-08T08:03:41.750Z,76.50
2017-12-08T08:06:09.989Z,75.60
2017-12-08T08:08:37.498Z,75.50
2017-12-08T08:11:04.981Z,75.70
2017-12-08T08:13:33.230Z,75.80
2017-12-08T08:16:01.473Z,75.40
2017-12-08T08:18:29.026Z,75.20
2017-12-08T08:20:56.456Z,75.40
2017-12-08T08:23:23.943Z,75.50
2017-12-08T08:25:52.537Z,75.30
2017-12-08T08:28:20.825Z,75.40
2017-12-08T08:30:48.314Z,75.20
2017-12-08T08:33:15.805Z,74.90
2017-12-08T08:35:44.037Z,74.80
2017-12-08T08:38:11.520Z,74.70
2017-12-08T08:40:39.008Z,74.60
2017-12-08T08:43:07.250Z,74.80
2017-12-08T08:45:34.726Z,74.80
2017-12-08T08:48:02.186Z,74.60
2017-12-08T08:50:29.679Z,74.10
2017-12-08T08:52:57.917Z,73.80
2017-12-08T08:55:25.398Z,73.80
2017-12-08T08:57:52.962Z,74.10
2017-12-08T09:00:20.452Z,74.30
2017-12-08T09:02:48.708Z,74.50
2017-12-08T09:05:16.190Z,74.50
2017-12-08T09:07:43.681Z,74.70
2017-12-08T09:10:11.205Z,75.00
2017-12-08T09:12:39.453Z,75.10
2017-12-08T09:15:06.946Z,75.00
2017-12-08T09:17:35.203Z,74.90
2017-12-08T09:20:03.487Z,74.70
2017-12-08T09:22:30.968Z,74.60
2017-12-08T09:24:58.426Z,74.20
2017-12-08T09:27:25.897Z,72.90
2017-12-08T09:29:54.158Z,72.00
2017-12-08T09:32:21.626Z,72.00
2017-12-08T09:34:49.124Z,71.20
2017-12-08T09:37:17.358Z,70.40
2017-12-08T09:39:44.838Z,70.40
2017-12-08T09:42:12.312Z,70.70
2017-12-08T09:44:40.579Z,72.10
2017-12-08T09:47:08.070Z,71.50
2017-12-08T09:49:35.540Z,72.80
2017-12-08T09:52:03.060Z,73.20
2017-12-08T09:54:30.531Z,73.40
2017-12-08T09:56:58.013Z,73.60
2017-12-08T09:59:26.256Z,72.70
2017-12-08T10:01:53.722Z,72.60
2017-12-08T10:04:21.191Z,72.60
2017-12-08T10:06:48.678Z,72.70
2017-12-08T10:09:16.935Z,71.10
2017-12-08T10:11:44.428Z,71.80
2017-12-08T10:14:12.671Z,69.70
2017-12-08T10:16:40.158Z,69.60
2017-12-08T10:19:08.554Z,69.30
2017-12-08T10:21:36.811Z,68.10
2017-12-08T10:24:04.547Z,68.10
2017-12-08T10:26:32.038Z,68.40
2017-12-08T10:28:59.521Z,69.50
2017-12-08T10:31:27.788Z,69.80
2017-12-08T10:33:55.310Z,69.80
2017-12-08T10:36:23.510Z,70.60
2017-12-08T10:38:51.002Z,70.00
2017-12-08T10:41:19.242Z,70.10
2017-12-08T10:43:46.725Z,70.10
2017-12-08T10:46:14.212Z,70.50
2017-12-08T10:48:42.453Z,69.20
2017-12-08T10:51:09.945Z,69.20
2017-12-08T10:53:37.425Z,69.50
2017-12-08T10:56:05.670Z,69.00
2017-12-08T10:58:33.152Z,69.00
2017-12-08T11:01:00.651Z,70.80
2017-12-08T11:03:28.122Z,72.70
2017-12-08T11:05:55.596Z,73.70
2017-12-08T11:08:23.077Z,74.60
2017-12-08T11:10:50.551Z,74.60
2017-12-08T11:13:18.048Z,75.20
2017-12-08T11:15:46.291Z,75.60
2017-12-08T11:18:13.761Z,75.50
2017-12-08T11:20:41.232Z,75.40
2017-12-08T11:23:08.735Z,75.50
2017-12-08T11:25:36.217Z,75.70
2017-12-08T11:28:03.714Z,75.80
2017-12-08T11:30:31.197Z,76.00
2017-12-08T11:32:59.452Z,76.00
2017-12-08T11:35:26.962Z,76.00
2017-12-08T11:37:55.197Z,76.50
2017-12-08T11:40:22.668Z,76.40
2017-12-08T11:42:50.156Z,76.70
2017-12-08T11:45:18.390Z,75.70
2017-12-08T11:47:45.893Z,75.70
2017-12-08T11:50:14.149Z,75.20
2017-12-08T11:52:41.661Z,75.20
2017-12-08T11:55:09.130Z,76.90
2017-12-08T11:57:36.618Z,76.90
2017-12-08T12:00:04.078Z,76.80
2017-12-08T12:02:31.563Z,76.90
2017-12-08T12:04:59.050Z,76.80
2017-12-08T12:07:27.328Z,77.00
2017-12-08T12:09:55.563Z,77.20
2017-12-08T12:12:23.061Z,77.20
2017-12-08T12:14:50.544Z,77.30
2017-12-08T12:17:18.792Z,77.10
2017-12-08T12:19:46.280Z,77.90
2017-12-08T12:22:14.534Z,77.50
2017-12-08T12:24:42.006Z,77.50
2017-12-08T12:27:09.467Z,77.30
2017-12-08T12:29:36.945Z,77.40
2017-12-08T12:32:05.187Z,77.20
2017-12-08T12:34:32.669Z,77.10
2017-12-08T12:37:00.139Z,77.00
2017-12-08T12:39:27.621Z,76.10
2017-12-08T12:41:55.101Z,76.10
2017-12-08T12:44:22.583Z,76.00
2017-12-08T12:46:50.050Z,76.20
2017-12-08T12:49:17.533Z,75.40
2017-12-08T12:51:45.092Z,74.40
2017-12-08T12:54:12.582Z,75.00
2017-12-08T12:56:40.830Z,72.30
2017-12-08T12:59:08.326Z,72.10
2017-12-08T13:01:35.796Z,72.10
2017-12-08T13:04:04.043Z,71.80
2017-12-08T13:06:31.542Z,71.70
2017-12-08T13:08:59.866Z,70.20
2017-12-08T13:11:28.102Z,71.10
2017-12-08T13:13:56.346Z,70.10
2017-12-08T13:16:24.808Z,70.10
2017-12-08T13:18:52.281Z,69.60
2017-12-08T13:21:19.761Z,69.80
2017-12-08T13:23:47.238Z,67.90
2017-12-08T13:26:14.721Z,69.40
2017-12-08T13:28:42.974Z,68.20
2017-12-08T13:31:10.452Z,68.20
2017-12-08T13:33:38.027Z,67.80
2017-12-08T13:36:05.521Z,66.70
2017-12-08T13:38:32.997Z,67.40
2017-12-08T13:41:00.485Z,67.10
2017-12-08T13:43:27.952Z,67.50
2017-12-08T13:45:55.448Z,67.80
2017-12-08T13:48:23.706Z,67.50
2017-12-08T13:50:51.199Z,67.50
2017-12-08T13:53:31.115Z,67.00
2017-12-08T13:56:10.418Z,66.90
2017-12-08T13:58:37.904Z,67.40
2017-12-08T14:01:05.398Z,67.80
2017-12-08T14:03:33.629Z,64.20
2017-12-08T14:06:01.108Z,64.20
2017-12-08T14:08:28.581Z,64.50
2017-12-08T14:10:56.058Z,63.20
2017-12-08T14:13:24.290Z,61.90
2017-12-08T14:15:51.792Z,61.90
2017-12-08T14:18:19.286Z,59.90
2017-12-08T14:20:46.762Z,63.60
2017-12-08T14:23:14.835Z,64.80
2017-12-08T14:25:42.316Z,65.70
2017-12-08T14:28:09.816Z,65.50
2017-12-08T14:30:37.305Z,65.90
2017-12-08T14:33:04.774Z,66.70
2017-12-08T14:35:32.261Z,66.70
2017-12-08T14:37:59.762Z,67.50
2017-12-08T14:40:27.239Z,67.00
2017-12-08T14:42:54.718Z,68.40
2017-12-08T14:45:22.232Z,68.70
2017-12-08T14:47:49.719Z,68.70
2017-12-08T14:50:17.213Z,68.20
2017-12-08T14:52:44.681Z,68.70
2017-12-08T14:55:12.171Z,68.60
2017-12-08T14:57:39.645Z,69.10
2017-12-08T15:00:07.107Z,68.90
2017-12-08T15:02:34.588Z,69.30
2017-12-08T15:05:02.069Z,69.90
2017-12-08T15:07:30.335Z,68.40
2017-12-08T15:09:57.819Z,68.40
2017-12-08T15:12:26.060Z,67.30
2017-12-08T15:14:53.548Z,67.30
2017-12-08T15:17:21.823Z,67.80
2017-12-08T15:19:49.318Z,67.80
2017-12-08T15:22:17.547Z,67.30
2017-12-08T15:24:45.035Z,67.40
2017-12-08T15:27:13.295Z,67.30
2017-12-08T15:29:40.770Z,67.20
2017-12-08T15:32:08.262Z,67.30
2017-12-08T15:34:36.519Z,67.40
2017-12-08T15:37:03.998Z,67.40
2017-12-08T15:39:32.303Z,67.60
2017-12-08T15:41:59.801Z,67.50
2017-12-08T15:44:27.279Z,68.10
2017-12-08T15:46:54.754Z,68.10
2017-12-08T15:49:22.247Z,68.40
2017-12-08T15:51:49.733Z,68.70
2017-12-08T15:54:17.235Z,69.00
2017-12-08T15:56:44.723Z,69.10
2017-12-08T15:59:12.960Z,69.40
2017-12-08T16:01:40.458Z,69.30
2017-12-08T16:04:08.696Z,69.70
2017-12-08T16:06:36.190Z,69.70
2017-12-08T16:09:03.659Z,69.70
2017-12-08T16:11:31.905Z,69.60
2017-12-08T16:13:59.407Z,69.60
2017-12-08T16:16:27.665Z,69.40
2017-12-08T16:18:55.163Z,69.30
2017-12-08T16:21:23.402Z,69.60
2017-12-08T16:23:50.896Z,69.40
2017-12-08T16:26:19.129Z,69.50
2017-12-08T16:28:46.609Z,69.50
2017-12-08T16:31:14.080Z,69.50
2017-12-08T16:33:41.552Z,69.50
2017-12-08T16:36:09.028Z,69.50
2017-12-08T16:38:37.301Z,69.90
2017-12-08T16:41:05.549Z,69.80
2017-12-08T16:43:33.052Z,69.70
2017-12-08T16:46:02.006Z,71.90
2017-12-08T16:48:29.494Z,71.90
2017-12-08T16:50:56.977Z,72.50
2017-12-08T16:53:25.238Z,73.40
2017-12-08T16:55:52.704Z,73.40
2017-12-08T16:58:20.203Z,73.90
2017-12-08T17:00:48.576Z,74.20
2017-12-08T17:03:16.078Z,74.10
2017-12-08T17:05:43.551Z,74.60
2017-12-08T17:08:11.030Z,75.20
2017-12-08T17:10:38.509Z,75.00
2017-12-08T17:13:06.776Z,75.20
2017-12-08T17:15:34.247Z,75.20
2017-12-08T17:18:01.730Z,75.50
2017-12-08T17:20:29.210Z,75.60
2017-12-08T17:22:56.703Z,75.40
2017-12-08T17:25:24.172Z,75.10
2017-12-08T17:30:42.557Z,75.70
2017-12-08T17:33:10.053Z,75.60
2017-12-08T17:35:38.367Z,75.50
2017-12-08T17:38:06.585Z,75.30
2017-12-08T17:40:35.802Z,74.80
2017-12-08T17:43:04.544Z,75.10
2017-12-08T17:45:32.031Z,75.00
2017-12-08T17:47:59.510Z,74.70
2017-12-08T17:50:27.746Z,74.50
2017-12-08T17:52:55.221Z,74.50
2017-12-08T17:55:22.723Z,74.40
2017-12-08T17:57:50.957Z,74.50
2017-12-08T18:00:18.447Z,74.50
2017-12-08T18:02:45.929Z,74.50
2017-12-08T18:05:13.413Z,74.50
2017-12-08T18:07:40.910Z,74.90
2017-12-08T18:10:08.393Z,75.00
2017-12-08T18:12:35.866Z,74.80
2017-12-08T18:15:03.345Z,74.90
2017-12-08T18:17:31.591Z,74.90
2017-12-08T18:19:59.094Z,74.90
2017-12-08T18:22:26.572Z,75.00
2017-12-08T18:24:54.059Z,75.00
2017-12-08T18:27:21.532Z,75.20
2017-12-08T18:29:49.013Z,75.10
2017-12-08T18:32:16.480Z,75.50
2017-12-08T18:34:43.956Z,75.60
2017-12-08T18:37:12.207Z,76.10
2017-12-08T18:39:40.711Z,76.10
2017-12-08T18:42:08.214Z,76.20
2017-12-08T18:44:35.714Z,76.40
2017-12-08T18:47:03.188Z,76.70
2017-12-08T18:49:30.674Z,76.60
2017-12-08T18:51:58.922Z,77.10
2017-12-08T18:54:26.427Z,76.90
2017-12-08T18:56:54.649Z,77.20
2017-12-08T18:59:22.124Z,77.10
2017-12-08T19:01:49.604Z,77.80
2017-12-08T19:04:17.074Z,77.10
2017-12-08T19:06:44.553Z,77.20
2017-12-08T19:09:12.785Z,77.50
2017-12-08T19:11:40.273Z,77.40
2017-12-08T19:14:07.770Z,77.20
2017-12-08T19:16:36.009Z,77.20
2017-12-08T19:19:03.476Z,77.20
2017-12-08T19:21:30.957Z,77.50
2017-12-08T19:23:59.198Z,77.50
2017-12-08T19:26:26.661Z,77.50
2017-12-08T19:28:54.920Z,77.10
2017-12-08T19:31:22.404Z,77.10
2017-12-08T19:33:50.660Z,77.10
2017-12-08T19:36:18.150Z,77.00
2017-12-08T19:38:45.641Z,77.00
2017-12-08T19:41:13.126Z,76.90
2017-12-08T19:43:41.368Z,76.70
2017-12-08T19:46:08.838Z,76.80
2017-12-08T19:48:36.323Z,76.70
2017-12-08T19:51:04.606Z,76.70
2017-12-08T19:53:32.853Z,76.60
2017-12-08T19:56:00.343Z,76.60
2017-12-08T19:58:28.579Z,76.90
2017-12-08T20:00:56.119Z,77.10
2017-12-08T20:03:23.608Z,76.50
2017-12-08T20:05:51.150Z,76.50
2017-12-08T20:08:18.647Z,76.50
2017-12-08T20:10:46.111Z,76.50
2017-12-08T20:13:13.632Z,76.60
2017-12-08T20:15:41.115Z,76.50
2017-12-08T20:18:08.633Z,76.50
2017-12-08T20:20:36.077Z,76.50
2017-12-08T20:23:03.616Z,76.50
2017-12-08T20:25:31.173Z,76.50
2017-12-08T20:27:59.410Z,76.50
2017-12-08T20:30:27.657Z,76.40
2017-12-08T20:32:55.153Z,76.30
2017-12-08T20:35:23.398Z,76.50
2017-12-08T20:37:50.921Z,76.50
2017-12-08T20:40:18.388Z,76.50
2017-12-08T20:42:45.924Z,76.50
2017-12-08T20:45:14.160Z,76.60
2017-12-08T20:47:41.711Z,76.50
2017-12-08T20:50:09.171Z,76.60
2017-12-08T20:52:36.659Z,76.70
2017-12-08T20:55:04.153Z,76.70
2017-12-08T20:57:32.400Z,76.70
2017-12-08T20:59:59.946Z,76.70
2017-12-08T21:02:27.441Z,76.80
2017-12-08T21:04:54.934Z,76.70
2017-12-08T21:07:22.433Z,76.00
2017-12-08T21:09:49.982Z,76.60
2017-12-08T21:12:17.724Z,76.70
2017-12-08T21:14:45.957Z,76.70
2017-12-08T21:17:13.437Z,76.60
2017-12-08T21:19:41.156Z,76.70
2017-12-08T21:22:08.626Z,76.70
2017-12-08T21:24:36.162Z,76.70
2017-12-08T21:27:04.416Z,76.70
2017-12-08T21:29:31.896Z,76.70
2017-12-08T21:32:00.130Z,76.70
2017-12-08T21:34:27.620Z,76.70
2017-12-08T21:36:55.091Z,76.70
2017-12-08T21:39:22.586Z,76.80
2017-12-08T21:41:50.083Z,76.70
2017-12-08T21:44:18.334Z,76.90
2017-12-08T21:46:45.798Z,76.90
2017-12-08T21:49:13.289Z,77.00
2017-12-08T21:51:40.760Z,77.10
2017-12-08T21:54:08.251Z,77.70
2017-12-08T21:56:35.733Z,77.40
2017-12-08T21:59:03.220Z,77.30
2017-12-08T22:01:30.703Z,77.80
2017-12-08T22:03:58.187Z,78.00
2017-12-08T22:06:25.658Z,77.80
2017-12-08T22:08:53.134Z,77.60
2017-12-08T22:11:21.380Z,77.90
2017-12-08T22:13:48.865Z,77.80
2017-12-08T22:16:17.126Z,77.40
2017-12-08T22:18:44.600Z,77.30
2017-12-08T22:21:12.071Z,78.20
2017-12-08T22:23:39.560Z,77.30
2017-12-08T22:26:07.794Z,77.30
2017-12-08T22:28:35.268Z,77.30
2017-12-08T22:31:02.754Z,77.00
2017-12-08T22:33:31.014Z,77.00
2017-12-08T22:35:58.484Z,76.80
2017-12-08T22:38:25.952Z,76.70
2017-12-08T22:40:53.453Z,76.70
2017-12-08T22:43:20.943Z,76.60
2017-12-08T22:45:48.419Z,76.60
2017-12-08T22:48:15.892Z,76.50
2017-12-08T22:50:43.407Z,76.40
2017-12-08T22:53:10.874Z,76.20
2017-12-08T22:55:38.369Z,76.00
2017-12-08T22:58:05.846Z,76.00
2017-12-08T23:00:33.335Z,76.00
2017-12-08T23:03:00.820Z,76.10
2017-12-08T23:05:29.090Z,75.90
2017-12-08T23:07:57.335Z,75.80
2017-12-08T23:10:24.818Z,75.80
2017-12-08T23:12:52.295Z,75.70
2017-12-08T23:15:20.552Z,75.40
2017-12-08T23:17:48.032Z,75.40
2017-12-08T23:20:16.282Z,75.60
2017-12-08T23:25:34.310Z,75.60
2017-12-08T23:28:01.811Z,75.70
2017-12-08T23:30:29.332Z,75.60
2017-12-08T23:32:56.804Z,75.40
2017-12-08T23:35:24.303Z,75.40
2017-12-08T23:37:51.774Z,75.50
2017-12-08T23:40:19.267Z,75.60
2017-12-08T23:42:46.760Z,75.50
2017-12-08T23:45:14.238Z,75.70
2017-12-08T23:47:41.718Z,75.70
2017-12-08T23:50:09.208Z,75.80
2017-12-08T23:52:37.442Z,76.00
2017-12-08T23:55:04.931Z,76.00
2017-12-08T23:57:32.407Z,76.10
